Time;durP1;ratioP1;P1;durP2;ratioP2;P2;SDS_P1;SDS_P2;PMS_P1;PMS_P2;Temp;Humidity;BMP_temperature;BMP_pressure;BME280_temperature;BME280_humidity;BME280_pressure;Samples;Min_cycle;Max_cycle;Signal;HPM_P1;HPM_P2
2023/05/20 00:00:35;;;;;;;17.15;4.10;;;12.10;99.90;;;;;;4994177;28;20046;-83
2023/05/20 00:03:21;;;;;;;14.38;4.18;;;12.10;99.90;;;;;;5012162;28;20064;-83
2023/05/20 00:06:07;;;;;;;19.73;4.20;;;12.10;99.90;;;;;;5012052;28;20568;-85
2023/05/20 00:08:54;;;;;;;16.98;4.50;;;12.10;99.90;;;;;;4997501;28;20164;-82
2023/05/20 00:11:40;;;;;;;19.15;5.47;;;12.10;99.90;;;;;;5018154;28;20561;-83
2023/05/20 00:14:27;;;;;;;13.25;3.25;;;12.00;99.90;;;;;;5018491;28;20132;-84
2023/05/20 00:17:13;;;;;;;20.90;4.90;;;12.10;99.90;;;;;;5000941;28;20056;-83
2023/05/20 00:19:59;;;;;;;14.68;4.35;;;12.10;99.90;;;;;;4984691;28;20137;-84
2023/05/20 00:22:45;;;;;;;22.17;5.00;;;12.10;99.90;;;;;;4994571;28;20050;-86
2023/05/20 00:25:31;;;;;;;12.32;3.92;;;12.00;99.90;;;;;;4993582;28;20066;-86
2023/05/20 00:28:18;;;;;;;17.63;6.07;;;12.00;99.90;;;;;;5010355;28;20141;-84
2023/05/20 00:31:04;;;;;;;18.80;4.75;;;12.00;99.90;;;;;;5011500;28;20057;-86
2023/05/20 00:33:50;;;;;;;12.52;4.30;;;12.00;99.90;;;;;;4994830;28;20060;-85
2023/05/20 00:36:36;;;;;;;17.58;4.07;;;12.00;99.90;;;;;;5011235;28;20089;-85
2023/05/20 00:39:22;;;;;;;16.15;4.00;;;12.00;99.90;;;;;;4993930;28;20050;-86
2023/05/20 00:42:09;;;;;;;12.85;3.92;;;12.00;99.90;;;;;;5011206;28;20058;-87
2023/05/20 00:44:55;;;;;;;17.25;3.72;;;12.00;99.90;;;;;;5009914;28;20390;-85
2023/05/20 00:47:42;;;;;;;15.48;4.38;;;12.00;99.90;;;;;;4993799;28;20054;-83
2023/05/20 00:50:28;;;;;;;12.88;3.72;;;11.90;99.90;;;;;;4993927;28;20062;-85
2023/05/20 00:53:17;;;;;;;15.90;4.45;;;11.90;99.90;;;;;;5011108;28;20058;-86
2023/05/20 00:56:04;;;;;;;16.00;4.30;;;11.90;99.90;;;;;;4979916;28;20049;-83
2023/05/20 00:58:51;;;;;;;17.52;5.07;;;11.90;99.90;;;;;;4979949;28;20565;-87
2023/05/20 01:01:37;;;;;;;19.55;4.90;;;11.80;99.90;;;;;;4993475;28;20057;-85
2023/05/20 01:04:23;;;;;;;13.75;3.80;;;11.90;99.90;;;;;;4997192;28;20069;-85
2023/05/20 01:07:09;;;;;;;10.60;4.10;;;11.80;99.90;;;;;;5011233;28;20413;-84
2023/05/20 01:09:56;;;;;;;15.73;4.38;;;11.80;99.90;;;;;;4992929;28;20045;-85
2023/05/20 01:12:47;;;;;;;17.45;4.18;;;11.80;99.90;;;;;;5011045;28;20081;-81
2023/05/20 01:15:34;;;;;;;15.80;4.65;;;11.90;99.90;;;;;;5011022;28;20133;-86
2023/05/20 01:18:24;;;;;;;13.43;5.43;;;11.80;99.90;;;;;;5010167;28;20062;-85
2023/05/20 01:21:12;;;;;;;12.80;4.18;;;11.90;99.90;;;;;;5011151;28;20050;-81
2023/05/20 01:24:00;;;;;;;13.98;4.55;;;11.80;99.90;;;;;;5010078;28;20065;-82
2023/05/20 01:26:47;;;;;;;15.80;4.93;;;11.80;99.90;;;;;;5010522;28;20046;-83
2023/05/20 01:29:33;;;;;;;20.17;5.18;;;11.80;99.90;;;;;;5009375;28;20053;-81
2023/05/20 01:32:31;;;;;;;13.73;4.18;;;11.80;99.90;;;;;;5010128;28;20060;-83
2023/05/20 01:35:18;;;;;;;11.25;4.38;;;11.80;99.90;;;;;;5010245;28;20068;-85
2023/05/20 01:38:05;;;;;;;14.48;3.90;;;11.90;99.90;;;;;;4993487;28;20387;-84
2023/05/20 01:40:53;;;;;;;12.85;4.03;;;11.90;99.90;;;;;;4993795;28;20053;-82
2023/05/20 01:43:39;;;;;;;13.25;4.50;;;11.90;99.90;;;;;;4995932;28;20053;-85
2023/05/20 01:46:25;;;;;;;15.93;3.70;;;11.80;99.90;;;;;;4965872;28;20784;-85
2023/05/20 01:49:11;;;;;;;15.88;4.25;;;11.80;99.90;;;;;;5009682;28;20065;-82
2023/05/20 01:51:58;;;;;;;11.00;4.45;;;11.90;99.90;;;;;;4992276;28;20402;-84
2023/05/20 01:54:49;;;;;;;13.05;4.22;;;11.90;99.90;;;;;;5008019;28;20056;-81
2023/05/20 01:57:35;;;;;;;13.23;4.00;;;11.80;99.90;;;;;;4992573;28;20050;-84
2023/05/20 02:00:23;;;;;;;11.45;3.92;;;11.80;99.90;;;;;;5009735;28;20151;-82
2023/05/20 02:03:10;;;;;;;12.15;3.83;;;11.80;99.90;;;;;;4992911;28;20376;-85
2023/05/20 02:05:56;;;;;;;12.52;3.90;;;11.80;99.90;;;;;;5009836;28;20506;-83
2023/05/20 02:08:42;;;;;;;18.83;5.53;;;11.80;99.90;;;;;;4992258;28;20053;-85
2023/05/20 02:11:28;;;;;;;16.13;4.03;;;11.80;99.90;;;;;;5009807;28;20056;-83
2023/05/20 02:14:14;;;;;;;15.77;4.60;;;11.80;99.90;;;;;;5010374;28;20608;-86
2023/05/20 02:17:00;;;;;;;12.90;3.90;;;11.80;99.90;;;;;;4991414;28;20593;-84
2023/05/20 02:19:46;;;;;;;14.13;4.60;;;11.80;99.90;;;;;;4991200;28;20411;-83
2023/05/20 02:22:32;;;;;;;16.17;4.78;;;11.70;99.90;;;;;;5008883;28;20111;-84
2023/05/20 02:25:18;;;;;;;16.88;3.97;;;11.70;99.90;;;;;;5007471;28;20145;-83
2023/05/20 02:28:04;;;;;;;14.02;3.83;;;11.70;99.90;;;;;;5010297;28;20054;-85
2023/05/20 02:30:50;;;;;;;9.20;4.13;;;11.70;99.90;;;;;;4996336;28;20065;-85
2023/05/20 02:33:36;;;;;;;14.80;3.97;;;11.70;99.90;;;;;;4991879;28;20057;-85
2023/05/20 02:36:22;;;;;;;12.52;4.30;;;11.70;99.90;;;;;;5009371;28;20058;-84
2023/05/20 02:39:09;;;;;;;13.63;4.07;;;11.70;99.90;;;;;;5007790;28;20061;-85
2023/05/20 02:41:55;;;;;;;16.40;5.05;;;11.60;99.90;;;;;;5010105;28;20140;-85
2023/05/20 02:44:41;;;;;;;13.50;3.63;;;11.60;99.90;;;;;;4992506;28;20062;-86
2023/05/20 02:47:27;;;;;;;14.15;3.83;;;11.60;99.90;;;;;;4995186;28;20069;-85
2023/05/20 02:50:13;;;;;;;12.50;3.55;;;11.60;99.90;;;;;;5009840;28;20050;-84
2023/05/20 02:52:59;;;;;;;16.98;3.90;;;11.60;99.90;;;;;;4991301;28;20132;-85
2023/05/20 02:55:46;;;;;;;12.55;3.80;;;11.60;99.90;;;;;;4992197;28;20056;-84
2023/05/20 02:58:34;;;;;;;12.25;4.00;;;11.50;99.90;;;;;;5008952;28;20128;-83
2023/05/20 03:01:20;;;;;;;12.82;3.60;;;11.50;99.90;;;;;;4994670;28;20181;-84
2023/05/20 03:04:07;;;;;;;11.90;4.07;;;11.50;99.90;;;;;;5009570;28;20107;-86
2023/05/20 03:06:56;;;;;;;13.00;3.28;;;11.50;99.90;;;;;;4991634;28;20108;-85
2023/05/20 03:09:42;;;;;;;10.80;3.03;;;11.50;99.90;;;;;;5010122;28;20058;-83
2023/05/20 03:12:30;;;;;;;9.77;3.42;;;11.50;99.90;;;;;;5008944;28;20073;-83
2023/05/20 03:15:16;;;;;;;8.48;2.78;;;11.50;99.90;;;;;;5009442;28;20050;-85
2023/05/20 03:18:03;;;;;;;10.80;3.25;;;11.40;99.90;;;;;;4992262;28;20132;-85
2023/05/20 03:20:49;;;;;;;9.05;2.85;;;11.40;99.90;;;;;;5011515;28;20058;-83
2023/05/20 03:23:35;;;;;;;10.52;2.97;;;11.40;99.90;;;;;;4995083;28;20120;-85
2023/05/20 03:26:22;;;;;;;10.13;2.78;;;11.40;99.90;;;;;;4982775;28;20069;-83
2023/05/20 03:29:09;;;;;;;9.05;2.90;;;11.40;99.90;;;;;;4994890;28;20200;-82
2023/05/20 03:31:55;;;;;;;9.38;2.60;;;11.30;99.90;;;;;;5013010;28;20060;-84
2023/05/20 03:34:41;;;;;;;9.13;3.08;;;11.30;99.90;;;;;;5010652;28;20058;-84
2023/05/20 03:37:27;;;;;;;9.80;2.97;;;11.30;99.90;;;;;;4995106;28;20058;-82
2023/05/20 03:40:13;;;;;;;9.48;3.00;;;11.30;99.90;;;;;;4994799;28;20136;-84
2023/05/20 03:42:59;;;;;;;10.30;2.85;;;11.30;99.90;;;;;;4981335;28;20072;-85
2023/05/20 03:45:45;;;;;;;12.02;2.92;;;11.30;99.90;;;;;;4999116;28;20053;-85
2023/05/20 03:48:31;;;;;;;9.80;2.95;;;11.30;99.90;;;;;;5012003;28;20054;-84
2023/05/20 03:51:17;;;;;;;7.93;2.83;;;11.30;99.90;;;;;;4995204;28;20046;-84
2023/05/20 03:54:03;;;;;;;6.50;2.65;;;11.30;99.90;;;;;;5011756;28;20053;-85
2023/05/20 03:56:50;;;;;;;7.50;2.92;;;11.30;99.90;;;;;;4981680;28;20056;-82
2023/05/20 03:59:37;;;;;;;7.97;2.20;;;11.30;99.90;;;;;;5013267;28;20053;-81
2023/05/20 04:02:23;;;;;;;10.48;2.80;;;11.30;99.90;;;;;;4994751;28;20490;-83
2023/05/20 04:05:09;;;;;;;9.73;2.38;;;11.30;99.90;;;;;;5011205;28;20057;-82
2023/05/20 04:07:56;;;;;;;10.43;2.50;;;11.30;99.90;;;;;;4994588;28;20081;-83
2023/05/20 04:10:42;;;;;;;6.82;2.50;;;11.30;99.90;;;;;;4994081;28;20141;-81
2023/05/20 04:13:28;;;;;;;8.13;2.30;;;11.20;99.90;;;;;;5009841;28;20058;-82
2023/05/20 04:16:15;;;;;;;6.30;1.90;;;11.30;99.90;;;;;;4981240;28;20050;-85
2023/05/20 04:19:02;;;;;;;7.85;2.38;;;11.30;99.90;;;;;;4995244;28;20089;-81
2023/05/20 04:21:47;;;;;;;9.30;2.45;;;11.30;99.90;;;;;;4994234;28;20081;-81
2023/05/20 04:24:34;;;;;;;6.07;1.60;;;11.30;99.90;;;;;;5011241;28;20053;-84
2023/05/20 04:27:20;;;;;;;6.70;1.92;;;11.30;99.90;;;;;;4993669;28;20542;-82
2023/05/20 04:30:06;;;;;;;6.00;1.80;;;11.30;99.90;;;;;;5009597;28;20062;-83
2023/05/20 04:32:53;;;;;;;6.28;2.03;;;11.30;99.90;;;;;;5010907;28;20127;-83
2023/05/20 04:35:40;;;;;;;7.30;1.70;;;11.30;99.90;;;;;;5010447;28;20096;-83
2023/05/20 04:38:31;;;;;;;6.15;1.60;;;11.30;99.90;;;;;;5012453;28;20141;-83
2023/05/20 04:41:17;;;;;;;7.00;1.38;;;11.30;99.90;;;;;;5010845;28;20050;-82
2023/05/20 04:44:03;;;;;;;6.80;1.70;;;11.40;99.90;;;;;;4993701;28;20092;-83
2023/05/20 04:46:49;;;;;;;5.18;1.27;;;11.40;99.90;;;;;;5011975;28;20069;-83
2023/05/20 04:49:35;;;;;;;5.00;1.48;;;11.40;99.90;;;;;;4993199;28;20054;-81
2023/05/20 04:52:21;;;;;;;7.57;1.23;;;11.40;99.90;;;;;;5011959;28;20058;-83
2023/05/20 04:55:09;;;;;;;6.43;1.70;;;11.40;99.90;;;;;;4993409;28;20045;-83
2023/05/20 04:57:55;;;;;;;7.75;1.75;;;11.50;99.90;;;;;;5010674;28;20049;-85
2023/05/20 05:00:42;;;;;;;5.65;1.40;;;11.60;99.90;;;;;;4996549;28;20560;-82
2023/05/20 05:03:29;;;;;;;8.85;1.60;;;11.70;99.90;;;;;;4993559;28;20092;-83
2023/05/20 05:06:15;;;;;;;4.47;1.23;;;11.80;99.90;;;;;;5010397;28;20045;-83
2023/05/20 05:09:01;;;;;;;8.05;2.10;;;11.80;99.90;;;;;;4993288;28;20061;-83
2023/05/20 05:11:47;;;;;;;7.32;1.35;;;11.90;99.90;;;;;;4993476;28;20057;-83
2023/05/20 05:14:33;;;;;;;10.30;1.65;;;11.90;99.90;;;;;;4992864;28;20045;-82
2023/05/20 05:17:19;;;;;;;3.85;1.58;;;12.10;99.90;;;;;;4979498;28;20056;-82
2023/05/20 05:20:07;;;;;;;4.97;1.15;;;12.10;99.90;;;;;;5011014;28;20089;-82
2023/05/20 05:22:53;;;;;;;4.63;1.42;;;12.20;99.90;;;;;;5009819;28;20095;-83
2023/05/20 05:25:39;;;;;;;5.55;1.20;;;12.40;99.90;;;;;;4992820;28;20079;-82
2023/05/20 05:28:25;;;;;;;5.05;1.65;;;12.70;99.90;;;;;;5010735;28;20853;-82
2023/05/20 05:31:11;;;;;;;7.55;1.38;;;13.00;99.90;;;;;;5008509;28;20140;-84
2023/05/20 05:33:57;;;;;;;4.68;1.55;;;13.30;99.90;;;;;;5010440;28;20149;-81
2023/05/20 05:36:43;;;;;;;12.13;1.95;;;13.50;99.90;;;;;;4993930;28;20084;-86
2023/05/20 05:39:29;;;;;;;5.40;1.60;;;13.70;99.90;;;;;;4992662;28;20064;-83
2023/05/20 05:42:15;;;;;;;5.38;1.50;;;13.90;99.90;;;;;;5010327;28;20080;-82
2023/05/20 05:45:02;;;;;;;6.97;1.45;;;13.80;99.90;;;;;;5009783;28;20046;-83
2023/05/20 05:47:48;;;;;;;4.50;1.23;;;13.80;99.90;;;;;;4992765;28;20221;-83
2023/05/20 05:50:34;;;;;;;6.82;1.42;;;13.90;99.90;;;;;;5011077;28;20064;-80
2023/05/20 05:53:20;;;;;;;8.35;1.52;;;13.90;99.90;;;;;;4994642;28;20497;-82
2023/05/20 05:56:06;;;;;;;6.50;1.58;;;14.00;99.90;;;;;;5011912;28;20129;-81
2023/05/20 05:58:52;;;;;;;6.93;1.27;;;14.10;99.90;;;;;;5010359;28;20119;-81
2023/05/20 06:01:39;;;;;;;8.40;1.77;;;14.10;99.90;;;;;;4992298;28;20068;-84
2023/05/20 06:04:25;;;;;;;5.80;1.08;;;14.30;99.90;;;;;;4992197;28;20061;-82
2023/05/20 06:07:11;;;;;;;9.75;1.40;;;14.30;99.90;;;;;;4992222;28;20494;-81
2023/05/20 06:09:57;;;;;;;5.65;1.55;;;14.40;99.90;;;;;;4991557;28;20052;-84
2023/05/20 06:12:43;;;;;;;3.20;1.25;;;14.50;99.90;;;;;;4992577;28;20053;-81
2023/05/20 06:15:29;;;;;;;6.60;1.38;;;14.60;99.90;;;;;;4992188;28;20058;-81
2023/05/20 06:18:15;;;;;;;7.18;1.38;;;14.70;99.90;;;;;;5009604;28;20052;-86
2023/05/20 06:21:01;;;;;;;6.40;1.38;;;14.80;99.90;;;;;;5009715;28;20061;-86
2023/05/20 06:23:48;;;;;;;3.83;1.10;;;14.90;99.90;;;;;;5010281;28;20060;-84
2023/05/20 06:26:34;;;;;;;4.70;1.02;;;14.90;99.90;;;;;;4978972;28;20077;-85
2023/05/20 06:29:21;;;;;;;6.90;1.73;;;15.00;99.90;;;;;;4979356;28;20049;-82
2023/05/20 06:32:07;;;;;;;6.38;1.70;;;15.10;99.90;;;;;;5009510;28;20049;-83
2023/05/20 06:34:53;;;;;;;2.72;0.95;;;15.30;99.90;;;;;;4991522;28;20049;-87
2023/05/20 06:37:40;;;;;;;4.47;1.10;;;15.30;99.90;;;;;;5009947;28;20187;-83
2023/05/20 06:40:27;;;;;;;4.57;1.05;;;15.40;99.90;;;;;;5009615;28;20498;-82
2023/05/20 06:43:13;;;;;;;7.50;1.48;;;15.50;99.90;;;;;;5009858;28;20414;-84
2023/05/20 06:45:59;;;;;;;4.05;1.30;;;15.50;99.90;;;;;;5009170;28;20046;-82
2023/05/20 06:48:45;;;;;;;5.38;1.48;;;15.70;99.90;;;;;;5009979;28;20053;-88
2023/05/20 06:51:31;;;;;;;9.27;1.38;;;15.70;99.90;;;;;;5007091;28;20084;-82
2023/05/20 06:54:17;;;;;;;5.32;1.00;;;15.80;99.90;;;;;;5007019;28;20122;-85
2023/05/20 06:57:03;;;;;;;6.80;1.35;;;15.80;99.90;;;;;;5012007;28;20053;-82
2023/05/20 06:59:49;;;;;;;5.35;1.20;;;15.90;99.90;;;;;;5013439;28;20096;-84
2023/05/20 07:02:35;;;;;;;5.68;0.95;;;16.00;99.90;;;;;;4994905;28;20108;-84
2023/05/20 07:05:23;;;;;;;8.15;1.25;;;16.20;99.90;;;;;;4998266;28;20573;-82
2023/05/20 07:08:10;;;;;;;5.22;1.10;;;16.40;99.90;;;;;;5013463;28;20046;-81
2023/05/20 07:10:56;;;;;;;4.88;1.48;;;16.60;99.90;;;;;;4999272;28;20123;-84
2023/05/20 07:13:42;;;;;;;6.10;1.00;;;16.70;99.90;;;;;;4996046;28;20502;-88
2023/05/20 07:16:28;;;;;;;8.38;1.10;;;16.70;99.90;;;;;;4995878;28;20092;-88
2023/05/20 07:19:15;;;;;;;3.85;1.15;;;16.70;99.90;;;;;;5015133;28;20054;-89
2023/05/20 07:22:01;;;;;;;7.47;2.00;;;16.80;99.90;;;;;;5014708;28;20065;-87
2023/05/20 07:24:47;;;;;;;7.53;1.30;;;17.00;99.90;;;;;;5012899;28;20058;-87
2023/05/20 07:27:33;;;;;;;7.22;1.30;;;17.10;99.90;;;;;;4995072;28;20184;-89
2023/05/20 07:30:19;;;;;;;8.90;1.40;;;17.20;99.90;;;;;;4995689;28;20057;-88
2023/05/20 07:33:05;;;;;;;3.90;1.10;;;17.20;99.90;;;;;;4996040;28;20061;-88
2023/05/20 07:35:53;;;;;;;6.18;1.15;;;17.30;99.90;;;;;;4987945;28;20088;-89
2023/05/20 07:38:40;;;;;;;7.65;1.20;;;17.50;99.90;;;;;;4995821;28;20065;-91
2023/05/20 07:41:26;;;;;;;3.50;0.90;;;17.60;99.90;;;;;;4994727;28;20050;-88
2023/05/20 07:44:12;;;;;;;5.57;1.08;;;17.70;99.20;;;;;;4994965;28;20532;-88
2023/05/20 07:46:58;;;;;;;3.28;0.82;;;17.80;98.90;;;;;;4988049;28;20049;-89
2023/05/20 07:49:45;;;;;;;4.45;0.95;;;17.80;98.70;;;;;;5011414;28;20054;-87
2023/05/20 07:52:31;;;;;;;6.75;0.95;;;17.80;98.60;;;;;;4994028;28;20057;-86
2023/05/20 07:55:17;;;;;;;4.75;1.10;;;18.00;98.60;;;;;;5011520;28;20096;-89
2023/05/20 07:58:04;;;;;;;8.05;1.02;;;18.10;98.90;;;;;;5006139;28;20056;-87
2023/05/20 08:00:50;;;;;;;6.47;1.10;;;18.20;98.10;;;;;;4998065;28;20145;-89
2023/05/20 08:03:36;;;;;;;6.00;1.10;;;18.20;97.70;;;;;;4998479;28;20050;-88
2023/05/20 08:06:25;;;;;;;10.77;1.65;;;18.40;98.00;;;;;;5012248;28;20064;-83
2023/05/20 08:09:11;;;;;;;5.38;1.10;;;18.50;98.70;;;;;;4994764;28;20112;-88
2023/05/20 08:11:57;;;;;;;6.57;1.40;;;18.60;98.30;;;;;;5011528;28;20064;-86
2023/05/20 08:14:43;;;;;;;10.80;2.08;;;18.80;98.40;;;;;;4996816;28;20544;-86
2023/05/20 08:17:29;;;;;;;15.45;3.00;;;19.00;98.60;;;;;;5009591;28;20054;-85
2023/05/20 08:20:15;;;;;;;11.57;1.92;;;19.00;98.80;;;;;;4994653;28;20588;-86
2023/05/20 08:23:02;;;;;;;12.15;2.45;;;19.10;98.80;;;;;;5011367;28;20199;-89
2023/05/20 08:25:48;;;;;;;8.82;1.55;;;19.10;98.80;;;;;;4994142;28;20053;-84
2023/05/20 08:28:36;;;;;;;12.55;2.83;;;19.30;99.00;;;;;;4980803;28;20081;-88
2023/05/20 08:31:22;;;;;;;10.10;2.08;;;19.40;98.70;;;;;;4993607;28;20072;-84
2023/05/20 08:34:08;;;;;;;9.52;2.03;;;19.20;98.20;;;;;;5009076;28;20535;-82
2023/05/20 08:36:56;;;;;;;6.97;1.58;;;19.40;98.40;;;;;;4993178;28;20562;-84
2023/05/20 08:39:45;;;;;;;11.50;2.15;;;19.50;98.40;;;;;;4993265;28;20057;-86
2023/05/20 08:42:31;;;;;;;9.98;1.80;;;19.50;98.30;;;;;;5012367;28;20057;-86
2023/05/20 08:45:20;;;;;;;6.40;1.52;;;19.50;98.30;;;;;;5011298;28;20049;-84
2023/05/20 08:48:06;;;;;;;6.70;1.50;;;19.50;98.30;;;;;;4993394;28;20107;-87
2023/05/20 08:50:55;;;;;;;9.98;1.77;;;19.50;98.30;;;;;;4992845;28;20061;-88
2023/05/20 08:53:41;;;;;;;8.15;1.48;;;19.60;98.00;;;;;;4993839;28;20049;-84
2023/05/20 08:56:27;;;;;;;9.13;2.13;;;19.60;97.80;;;;;;4996529;28;20057;-87
2023/05/20 08:59:16;;;;;;;7.65;2.08;;;19.60;97.60;;;;;;5008797;28;20520;-86
2023/05/20 09:02:02;;;;;;;9.80;2.05;;;19.60;97.60;;;;;;5011455;28;20101;-82
2023/05/20 09:04:48;;;;;;;7.63;2.30;;;19.50;97.60;;;;;;5009944;28;20409;-84
2023/05/20 09:07:34;;;;;;;15.15;2.70;;;19.70;97.40;;;;;;5009091;28;20056;-87
2023/05/20 09:10:20;;;;;;;12.23;2.25;;;19.70;97.00;;;;;;5011642;28;20058;-85
2023/05/20 09:13:07;;;;;;;7.47;1.70;;;19.70;96.90;;;;;;5009234;28;20077;-83
2023/05/20 09:15:54;;;;;;;9.13;1.70;;;19.80;97.10;;;;;;4993219;28;20421;-86
2023/05/20 09:18:40;;;;;;;7.00;1.90;;;19.80;96.80;;;;;;5008051;28;20050;-83
2023/05/20 09:21:27;;;;;;;10.50;2.05;;;19.80;96.40;;;;;;4992493;28;20116;-85
2023/05/20 09:24:13;;;;;;;8.10;1.70;;;19.90;96.40;;;;;;5010786;28;20058;-85
2023/05/20 09:26:59;;;;;;;11.93;2.33;;;20.20;96.40;;;;;;5009731;28;20116;-84
2023/05/20 09:29:49;;;;;;;6.90;1.88;;;20.30;96.20;;;;;;4993430;28;20104;-84
2023/05/20 09:32:37;;;;;;;8.93;2.00;;;20.50;95.60;;;;;;5009865;28;20060;-83
2023/05/20 09:35:24;;;;;;;11.38;1.83;;;20.40;95.30;;;;;;4980685;28;20097;-85
2023/05/20 09:38:11;;;;;;;8.63;2.22;;;20.40;94.90;;;;;;4996123;28;20060;-86
2023/05/20 09:41:00;;;;;;;9.07;1.60;;;20.50;94.80;;;;;;4991864;28;20054;-86
2023/05/20 09:43:47;;;;;;;13.85;2.50;;;20.50;94.70;;;;;;4992087;28;20061;-85
2023/05/20 09:46:34;;;;;;;10.07;3.00;;;20.40;94.90;;;;;;5009783;28;20050;-84
2023/05/20 09:49:22;;;;;;;8.50;1.88;;;20.50;94.60;;;;;;5010158;28;20526;-84
2023/05/20 09:52:09;;;;;;;4.85;2.00;;;20.50;94.80;;;;;;5010484;28;20257;-87
2023/05/20 09:54:57;;;;;;;8.68;1.73;;;20.50;94.40;;;;;;5010104;28;20111;-85
2023/05/20 09:57:46;;;;;;;5.53;1.25;;;20.50;94.40;;;;;;4993359;28;20140;-87
2023/05/20 10:00:33;;;;;;;6.63;1.85;;;20.70;94.50;;;;;;4991578;28;20050;-86
2023/05/20 10:03:23;;;;;;;7.18;1.42;;;20.80;94.20;;;;;;4993105;28;20054;-83
2023/05/20 10:06:16;;;;;;;8.80;1.20;;;20.80;94.20;;;;;;4979351;28;20061;-85
2023/05/20 10:09:22;;;;;;;12.35;2.05;;;20.90;94.00;;;;;;4991626;28;20513;-82
2023/05/20 10:12:23;;;;;;;8.40;1.50;;;21.10;93.90;;;;;;4991800;28;20053;-86
2023/05/20 10:15:29;;;;;;;8.07;1.83;;;21.10;93.80;;;;;;5009938;28;20069;-83
2023/05/20 10:18:34;;;;;;;14.23;1.45;;;21.10;93.80;;;;;;4992146;28;20053;-84
2023/05/20 10:21:24;;;;;;;12.70;2.53;;;21.10;93.70;;;;;;4993142;28;20442;-84
2023/05/20 10:24:10;;;;;;;14.05;2.00;;;21.20;93.70;;;;;;5009420;28;20145;-82
2023/05/20 10:26:58;;;;;;;9.35;1.58;;;21.20;93.40;;;;;;4996325;28;20053;-83
2023/05/20 10:30:14;;;;;;;8.15;1.80;;;21.20;93.60;;;;;;4992248;28;20108;-83
2023/05/20 10:33:04;;;;;;;11.63;2.15;;;21.70;93.40;;;;;;4992867;28;20052;-82
2023/05/20 10:35:53;;;;;;;7.80;1.63;;;21.70;93.50;;;;;;4991281;28;20725;-83
2023/05/20 10:38:52;;;;;;;19.85;2.65;;;21.60;93.40;;;;;;4978387;28;20064;-84
2023/05/20 10:41:38;;;;;;;8.80;2.03;;;21.40;92.80;;;;;;5008986;28;20057;-86
2023/05/20 10:44:24;;;;;;;7.85;1.88;;;21.30;93.50;;;;;;4991889;28;20112;-85
2023/05/20 10:47:11;;;;;;;7.75;1.55;;;21.40;93.30;;;;;;5009722;28;20053;-82
2023/05/20 10:49:58;;;;;;;7.68;1.52;;;21.50;93.30;;;;;;4991939;28;20145;-82
2023/05/20 10:52:44;;;;;;;9.93;1.88;;;21.80;93.40;;;;;;5010041;28;20058;-87
2023/05/20 10:55:38;;;;;;;7.50;1.67;;;22.00;93.30;;;;;;5009683;28;20069;-87
2023/05/20 10:58:24;;;;;;;14.10;2.35;;;22.00;92.90;;;;;;5009226;28;20387;-86
2023/05/20 11:01:11;;;;;;;8.00;1.45;;;22.10;93.10;;;;;;4979024;28;20089;-87
2023/05/20 11:03:59;;;;;;;10.18;1.75;;;22.40;92.80;;;;;;4978375;28;20064;-81
2023/05/20 11:06:54;;;;;;;12.52;1.77;;;22.40;92.20;;;;;;5009046;28;20045;-83
2023/05/20 11:09:49;;;;;;;7.45;1.83;;;22.40;91.90;;;;;;5009578;28;20061;-82
2023/05/20 11:12:35;;;;;;;10.27;1.65;;;22.40;92.00;;;;;;4995384;28;20148;-82
2023/05/20 11:15:25;;;;;;;9.00;2.10;;;22.50;92.30;;;;;;4991439;28;20472;-82
2023/05/20 11:18:13;;;;;;;10.20;2.08;;;22.70;92.20;;;;;;4991744;28;20112;-82
2023/05/20 11:21:01;;;;;;;9.00;2.13;;;22.90;92.20;;;;;;5015575;28;20064;-80
2023/05/20 11:23:50;;;;;;;7.50;1.85;;;22.90;91.50;;;;;;5017158;28;20127;-81
2023/05/20 11:26:37;;;;;;;8.48;1.73;;;22.90;91.50;;;;;;5013155;28;20045;-86
2023/05/20 11:29:25;;;;;;;11.43;1.77;;;22.90;91.60;;;;;;4991120;28;20057;-85
2023/05/20 11:32:11;;;;;;;6.35;1.30;;;22.80;91.70;;;;;;5009032;28;20140;-82
2023/05/20 11:34:57;;;;;;;11.48;2.30;;;22.90;91.80;;;;;;4991912;28;20133;-82
2023/05/20 11:37:43;;;;;;;6.30;1.65;;;22.80;91.60;;;;;;4991219;28;20062;-83
2023/05/20 11:40:31;;;;;;;7.65;2.10;;;22.90;91.90;;;;;;5007965;28;20137;-81
2023/05/20 11:43:18;;;;;;;9.77;1.75;;;22.90;91.60;;;;;;4994749;28;20142;-81
2023/05/20 11:46:04;;;;;;;7.85;1.58;;;23.10;91.70;;;;;;4995330;28;20406;-83
2023/05/20 11:48:54;;;;;;;9.82;2.10;;;23.00;91.40;;;;;;5012008;28;20088;-89
2023/05/20 11:51:40;;;;;;;9.00;2.40;;;23.50;91.90;;;;;;5013094;28;20053;-89
2023/05/20 11:54:26;;;;;;;11.98;2.90;;;23.50;91.30;;;;;;5010414;28;20414;-90
2023/05/20 11:57:12;;;;;;;10.10;2.28;;;23.70;91.00;;;;;;5015163;28;20139;-89
2023/05/20 11:59:58;;;;;;;9.27;2.35;;;24.00;90.90;;;;;;5013857;28;20136;-87
2023/05/20 12:02:44;;;;;;;10.57;2.40;;;24.00;90.50;;;;;;4994565;28;20580;-81
2023/05/20 12:05:30;;;;;;;12.60;2.08;;;24.00;90.30;;;;;;4995914;28;20137;-87
2023/05/20 12:08:16;;;;;;;12.15;2.47;;;23.80;90.00;;;;;;5012371;28;20053;-82
2023/05/20 12:11:02;;;;;;;7.32;2.00;;;23.50;89.70;;;;;;4981154;28;20065;-83
2023/05/20 12:13:49;;;;;;;9.00;2.40;;;23.30;90.30;;;;;;5012380;28;20054;-84
2023/05/20 12:16:36;;;;;;;9.45;2.35;;;23.30;90.60;;;;;;4994374;28;20761;-86
2023/05/20 12:19:23;;;;;;;11.80;2.22;;;23.20;90.60;;;;;;4994042;28;20062;-83
2023/05/20 12:22:09;;;;;;;10.90;2.08;;;23.30;90.10;;;;;;4994542;28;20057;-83
2023/05/20 12:24:55;;;;;;;9.57;2.33;;;23.30;89.90;;;;;;5010742;28;20060;-87
2023/05/20 12:27:42;;;;;;;6.72;2.35;;;22.90;90.00;;;;;;5012711;28;20072;-84
2023/05/20 12:30:28;;;;;;;10.05;2.60;;;23.20;90.40;;;;;;5012048;28;20065;-85
2023/05/20 12:33:14;;;;;;;10.63;2.47;;;23.10;90.10;;;;;;5011340;28;20092;-82
2023/05/20 12:36:00;;;;;;;10.15;2.10;;;23.00;89.90;;;;;;5011654;28;20146;-85
2023/05/20 12:38:46;;;;;;;10.35;2.95;;;22.90;90.30;;;;;;4994440;28;20514;-85
2023/05/20 12:41:32;;;;;;;7.82;2.20;;;23.00;90.40;;;;;;4996812;28;20528;-87
2023/05/20 12:44:18;;;;;;;9.55;2.28;;;23.30;90.10;;;;;;4993707;28;20042;-85
2023/05/20 12:47:04;;;;;;;12.38;2.22;;;23.30;90.20;;;;;;5011511;28;20053;-86
2023/05/20 12:49:50;;;;;;;8.23;2.25;;;23.60;89.30;;;;;;5009327;28;20060;-86
2023/05/20 12:52:36;;;;;;;9.50;2.45;;;23.50;89.40;;;;;;5008576;28;20096;-83
2023/05/20 12:55:22;;;;;;;9.15;2.70;;;23.50;88.40;;;;;;5011888;28;20429;-82
2023/05/20 12:58:08;;;;;;;8.25;3.40;;;23.50;88.80;;;;;;5010392;28;20042;-87
2023/05/20 13:00:54;;;;;;;10.30;2.70;;;24.00;88.80;;;;;;5010771;28;20084;-86
2023/05/20 13:03:40;;;;;;;8.98;2.63;;;24.40;88.50;;;;;;5011907;28;20060;-82
2023/05/20 13:06:26;;;;;;;12.18;3.15;;;24.60;88.20;;;;;;4993862;28;20137;-87
2023/05/20 13:09:12;;;;;;;9.90;2.83;;;24.50;87.90;;;;;;4993288;28;20050;-88
2023/05/20 13:11:59;;;;;;;10.00;2.65;;;24.60;86.90;;;;;;4992819;28;20128;-88
2023/05/20 13:14:45;;;;;;;9.05;2.58;;;24.80;86.30;;;;;;5011609;28;20498;-85
2023/05/20 13:17:31;;;;;;;9.02;2.70;;;25.00;86.30;;;;;;4993569;28;20123;-88
2023/05/20 13:20:18;;;;;;;7.57;3.05;;;25.30;85.80;;;;;;5010597;28;20056;-83
2023/05/20 13:23:04;;;;;;;11.40;2.70;;;25.00;85.00;;;;;;4995891;28;20059;-85
2023/05/20 13:25:50;;;;;;;11.38;2.83;;;25.20;84.80;;;;;;4992542;28;20054;-85
2023/05/20 13:28:36;;;;;;;9.70;2.75;;;25.40;84.40;;;;;;5009937;28;20115;-86
2023/05/20 13:31:22;;;;;;;9.13;3.00;;;26.10;84.00;;;;;;4993096;28;20057;-87
2023/05/20 13:34:08;;;;;;;7.40;1.95;;;25.80;82.00;;;;;;5010265;28;20050;-84
2023/05/20 13:36:54;;;;;;;7.80;2.80;;;25.80;82.70;;;;;;5010392;28;20054;-86
2023/05/20 13:39:40;;;;;;;10.70;2.70;;;25.70;82.10;;;;;;5010518;28;20056;-84
2023/05/20 13:42:27;;;;;;;16.77;2.40;;;26.00;81.90;;;;;;4992437;28;20046;-85
2023/05/20 13:45:13;;;;;;;9.60;2.65;;;26.50;81.50;;;;;;4996481;28;20107;-85
2023/05/20 13:47:59;;;;;;;8.07;2.70;;;26.90;80.30;;;;;;5010290;28;20053;-83
2023/05/20 13:50:45;;;;;;;10.30;2.65;;;27.30;79.50;;;;;;4993456;28;20064;-85
2023/05/20 13:53:31;;;;;;;15.13;2.72;;;27.90;77.60;;;;;;5011405;28;20108;-83
2023/05/20 13:56:17;;;;;;;12.38;2.53;;;27.70;76.80;;;;;;5010263;28;20045;-85
2023/05/20 13:59:03;;;;;;;8.82;2.70;;;27.80;75.90;;;;;;4991853;28;20060;-80
2023/05/20 14:01:49;;;;;;;14.35;2.85;;;27.90;75.40;;;;;;5008175;28;20069;-81
2023/05/20 14:04:38;;;;;;;11.02;2.60;;;28.30;74.40;;;;;;5009135;28;20061;-85
2023/05/20 14:07:24;;;;;;;12.73;3.22;;;28.30;73.20;;;;;;4980606;28;20133;-84
2023/05/20 14:10:10;;;;;;;11.50;2.88;;;28.30;72.30;;;;;;5010682;28;20054;-86
2023/05/20 14:12:57;;;;;;;10.60;2.75;;;28.70;71.10;;;;;;5009084;28;20107;-87
2023/05/20 14:15:43;;;;;;;11.27;2.30;;;28.70;70.20;;;;;;4992789;28;20133;-83
2023/05/20 14:18:29;;;;;;;9.20;2.20;;;28.60;69.80;;;;;;4992684;28;20046;-81
2023/05/20 14:21:15;;;;;;;9.02;2.08;;;28.70;68.90;;;;;;5010379;28;20429;-84
2023/05/20 14:24:02;;;;;;;5.65;2.10;;;29.00;68.60;;;;;;5009978;28;20532;-87